Time;durP1;ratioP1;P1;durP2;ratioP2;P2;SDS_P1;SDS_P2;PMS_P1;PMS_P2;Temp;Humidity;BMP_temperature;BMP_pressure;BME280_temperature;BME280_humidity;BME280_pressure;Samples;Min_cycle;Max_cycle;Signal;HPM_P1;HPM_P2
2023/03/01 06:00:13;;;;;;;21.13;18.93;;;3.90;97.20;;;;;;1720159;28;20188;-64
2023/03/01 06:01:04;;;;;;;22.95;19.65;;;3.90;97.20;;;;;;1720349;28;20570;-65
2023/03/01 06:01:56;;;;;;;21.37;19.17;;;3.90;97.20;;;;;;1720354;28;20570;-64
2023/03/01 06:02:46;;;;;;;20.80;18.63;;;3.90;97.20;;;;;;1719952;28;20448;-64
2023/03/01 06:03:38;;;;;;;22.83;19.43;;;3.90;97.20;;;;;;1719788;28;20209;-64
2023/03/01 06:04:29;;;;;;;21.17;19.08;;;3.90;97.20;;;;;;1720079;28;20702;-65
2023/03/01 06:05:21;;;;;;;21.57;19.30;;;3.90;97.20;;;;;;1720220;28;20683;-65
2023/03/01 06:06:12;;;;;;;20.83;18.67;;;3.90;97.20;;;;;;1720273;28;20223;-65
2023/03/01 06:07:04;;;;;;;20.80;18.70;;;3.90;97.20;;;;;;1720204;28;20254;-64
2023/03/01 06:07:55;;;;;;;21.90;17.90;;;3.90;97.20;;;;;;1719765;28;20208;-64
2023/03/01 06:08:46;;;;;;;19.70;17.73;;;3.90;97.20;;;;;;1715117;28;20212;-64
2023/03/01 06:09:37;;;;;;;20.45;18.30;;;3.90;97.20;;;;;;1713582;28;20214;-64
2023/03/01 06:10:29;;;;;;;20.40;18.37;;;3.90;97.20;;;;;;1713696;28;20206;-65
2023/03/01 06:11:20;;;;;;;21.45;19.35;;;3.90;97.20;;;;;;1713627;28;20638;-64
2023/03/01 06:12:14;;;;;;;22.08;19.17;;;3.90;97.20;;;;;;1713735;28;20260;-64
2023/03/01 06:13:05;;;;;;;21.05;18.85;;;3.90;97.20;;;;;;1713446;28;20240;-64
2023/03/01 06:13:57;;;;;;;22.20;20.00;;;3.90;97.20;;;;;;1713679;28;20213;-64
2023/03/01 06:14:48;;;;;;;20.35;18.25;;;3.90;97.20;;;;;;1713722;28;20481;-64
2023/03/01 06:15:41;;;;;;;23.63;21.13;;;3.90;97.20;;;;;;1713692;28;20720;-64
2023/03/01 06:16:31;;;;;;;22.40;20.10;;;3.90;97.20;;;;;;1713645;28;20210;-64
2023/03/01 06:17:23;;;;;;;21.50;19.30;;;3.90;97.20;;;;;;1713192;28;20208;-64
2023/03/01 06:18:14;;;;;;;21.52;19.27;;;3.90;97.20;;;;;;1713566;28;20692;-64
2023/03/01 06:19:05;;;;;;;21.90;19.50;;;3.90;97.20;;;;;;1713436;28;20715;-64
2023/03/01 06:19:56;;;;;;;21.98;19.67;;;4.00;97.20;;;;;;1713561;28;20559;-64
2023/03/01 06:20:54;;;;;;;21.13;18.90;;;4.00;97.20;;;;;;1716036;28;20235;-64
2023/03/01 06:21:45;;;;;;;20.63;18.52;;;4.00;97.20;;;;;;1720407;28;20796;-65
2023/03/01 06:22:37;;;;;;;20.83;18.63;;;4.00;97.20;;;;;;1720063;28;20287;-64
2023/03/01 06:23:27;;;;;;;20.80;18.60;;;4.00;97.20;;;;;;1720135;28;20212;-65
2023/03/01 06:24:19;;;;;;;21.20;19.00;;;4.00;97.20;;;;;;1720298;28;20201;-65
2023/03/01 06:25:12;;;;;;;21.45;19.23;;;4.00;97.20;;;;;;1720299;28;20213;-65
2023/03/01 06:26:07;;;;;;;21.33;19.05;;;4.00;97.20;;;;;;1720270;28;20201;-65
2023/03/01 06:26:58;;;;;;;20.55;18.55;;;4.00;97.20;;;;;;1720367;28;20626;-65
2023/03/01 06:27:51;;;;;;;22.87;19.50;;;4.00;97.20;;;;;;1719777;28;20610;-65
2023/03/01 06:28:45;;;;;;;20.95;18.90;;;4.00;97.20;;;;;;1720167;28;20209;-65
2023/03/01 06:29:37;;;;;;;21.60;19.30;;;4.00;97.20;;;;;;1720350;28;20253;-64
2023/03/01 06:30:28;;;;;;;21.40;19.20;;;4.00;97.20;;;;;;1720192;28;20553;-65
2023/03/01 06:31:21;;;;;;;20.77;18.77;;;4.00;97.20;;;;;;1720167;28;20254;-65
2023/03/01 06:32:11;;;;;;;21.45;18.95;;;4.00;97.20;;;;;;1720360;28;20213;-65
2023/03/01 06:33:03;;;;;;;27.77;18.63;;;4.00;97.20;;;;;;1720034;28;20201;-65
2023/03/01 06:33:54;;;;;;;22.02;19.88;;;4.00;97.20;;;;;;1720292;28;20201;-65
2023/03/01 06:34:46;;;;;;;21.50;19.33;;;4.00;97.20;;;;;;1719930;28;20201;-65
2023/03/01 06:35:37;;;;;;;21.15;18.95;;;4.00;97.20;;;;;;1715170;28;20441;-65
2023/03/01 06:36:29;;;;;;;23.65;19.85;;;4.00;97.20;;;;;;1720354;28;20284;-64
2023/03/01 06:37:20;;;;;;;22.08;19.48;;;4.00;97.20;;;;;;1719649;28;20205;-65
2023/03/01 06:38:11;;;;;;;22.57;20.23;;;4.10;97.20;;;;;;1720323;28;20204;-65
2023/03/01 06:39:02;;;;;;;20.20;18.10;;;4.10;97.20;;;;;;1720129;28;20741;-65
2023/03/01 06:39:54;;;;;;;22.50;20.10;;;4.10;97.20;;;;;;1720295;28;20622;-65
2023/03/01 06:40:51;;;;;;;23.58;19.25;;;4.10;97.20;;;;;;1720164;28;20514;-65
2023/03/01 06:41:43;;;;;;;20.88;18.77;;;4.10;97.20;;;;;;1720261;28;20564;-65
2023/03/01 06:42:34;;;;;;;20.58;18.38;;;4.10;97.20;;;;;;1720372;28;20687;-65
2023/03/01 06:43:25;;;;;;;21.70;19.05;;;4.10;97.20;;;;;;1720306;28;20193;-65
2023/03/01 06:44:16;;;;;;;21.75;19.58;;;4.10;97.20;;;;;;1721511;28;20216;-65
2023/03/01 06:45:09;;;;;;;23.40;19.10;;;4.20;97.20;;;;;;1721546;28;20207;-65
2023/03/01 06:46:00;;;;;;;20.08;17.98;;;4.20;97.20;;;;;;1721635;28;20216;-65
2023/03/01 06:46:54;;;;;;;21.00;18.77;;;4.20;97.20;;;;;;1721410;28;20209;-65
2023/03/01 06:47:44;;;;;;;21.63;19.52;;;4.20;97.20;;;;;;1720751;28;20257;-65
2023/03/01 06:48:36;;;;;;;23.67;19.97;;;4.30;97.20;;;;;;1721196;28;20219;-65
2023/03/01 06:49:27;;;;;;;20.30;17.90;;;4.30;97.20;;;;;;1721181;28;20452;-65
2023/03/01 06:50:20;;;;;;;22.37;19.97;;;4.30;97.20;;;;;;1721067;28;20203;-65
2023/03/01 06:51:10;;;;;;;21.25;18.88;;;4.40;97.20;;;;;;1720794;28;20918;-65
2023/03/01 06:52:02;;;;;;;20.47;18.43;;;4.40;97.20;;;;;;1715001;28;20210;-65
2023/03/01 06:52:55;;;;;;;23.45;20.77;;;4.40;97.20;;;;;;1714578;28;20233;-65
2023/03/01 06:53:47;;;;;;;22.10;19.60;;;4.50;97.20;;;;;;1714615;28;20281;-65
2023/03/01 06:54:38;;;;;;;22.75;19.52;;;4.50;97.20;;;;;;1714504;28;20205;-65
2023/03/01 06:55:30;;;;;;;22.53;20.13;;;4.50;97.20;;;;;;1714479;28;20681;-65
2023/03/01 06:56:21;;;;;;;20.77;18.63;;;4.50;97.20;;;;;;1714330;28;20206;-65
2023/03/01 06:57:13;;;;;;;25.00;20.00;;;4.50;97.20;;;;;;1714263;28;20209;-65
2023/03/01 06:58:03;;;;;;;22.55;18.67;;;4.50;97.20;;;;;;1714442;28;20845;-65
2023/03/01 06:58:55;;;;;;;21.43;19.23;;;4.40;97.20;;;;;;1720564;28;20600;-65
2023/03/01 06:59:46;;;;;;;21.40;18.70;;;4.50;97.20;;;;;;1720466;28;20205;-65
2023/03/01 07:00:40;;;;;;;22.38;18.85;;;4.40;97.20;;;;;;1714192;28;20664;-65
2023/03/01 07:01:31;;;;;;;24.00;19.15;;;4.50;97.20;;;;;;1715927;28;20209;-65
2023/03/01 07:02:24;;;;;;;21.77;18.47;;;4.50;97.20;;;;;;1720289;28;20284;-65
2023/03/01 07:03:15;;;;;;;21.38;19.15;;;4.50;97.20;;;;;;1720262;28;20448;-65
2023/03/01 07:04:07;;;;;;;22.23;20.00;;;4.50;97.20;;;;;;1720745;28;20193;-65
2023/03/01 07:04:58;;;;;;;21.42;18.95;;;4.50;97.20;;;;;;1720200;28;20468;-65
2023/03/01 07:05:51;;;;;;;20.70;18.60;;;4.50;97.20;;;;;;1720958;28;20197;-65
2023/03/01 07:06:42;;;;;;;22.25;19.85;;;4.50;97.20;;;;;;1721219;28;20448;-65
2023/03/01 07:07:34;;;;;;;22.27;18.90;;;4.50;97.20;;;;;;1720018;28;20284;-65
2023/03/01 07:08:26;;;;;;;20.88;18.73;;;4.50;97.20;;;;;;1718131;28;20698;-65
2023/03/01 07:09:19;;;;;;;26.27;19.55;;;4.50;97.20;;;;;;1714040;28;20209;-65
2023/03/01 07:10:12;;;;;;;21.55;19.08;;;4.50;97.20;;;;;;1713970;28;20228;-65
2023/03/01 07:11:05;;;;;;;22.90;19.48;;;4.50;97.20;;;;;;1714127;28;20241;-65
2023/03/01 07:11:58;;;;;;;22.25;20.05;;;4.50;97.20;;;;;;1714126;28;20880;-65
2023/03/01 07:12:50;;;;;;;22.25;19.58;;;4.50;97.20;;;;;;1714675;28;20686;-65
2023/03/01 07:13:41;;;;;;;20.40;18.30;;;4.50;97.20;;;;;;1714741;28;20206;-65
2023/03/01 07:14:33;;;;;;;22.42;20.10;;;4.50;97.20;;;;;;1714821;28;20265;-64
2023/03/01 07:15:24;;;;;;;21.38;19.08;;;4.50;97.20;;;;;;1714712;28;20206;-65
2023/03/01 07:16:16;;;;;;;22.80;19.75;;;4.50;97.20;;;;;;1714793;28;20284;-65
2023/03/01 07:17:07;;;;;;;20.00;18.00;;;4.50;97.20;;;;;;1714436;28;20208;-67
2023/03/01 07:18:00;;;;;;;20.80;18.70;;;4.50;97.20;;;;;;1713531;28;20784;-65
2023/03/01 07:18:51;;;;;;;22.02;19.67;;;4.60;97.20;;;;;;1707455;29;20578;-65
2023/03/01 07:19:43;;;;;;;21.97;19.77;;;4.60;97.20;;;;;;1707720;29;20202;-66
2023/03/01 07:20:35;;;;;;;23.00;20.70;;;4.70;97.20;;;;;;1712236;28;20232;-66
2023/03/01 07:21:26;;;;;;;22.08;19.65;;;4.70;97.20;;;;;;1714823;28;20226;-65
2023/03/01 07:22:17;;;;;;;20.48;18.25;;;4.70;97.20;;;;;;1714879;28;20236;-65
2023/03/01 07:23:09;;;;;;;21.57;19.37;;;4.70;97.20;;;;;;1714738;28;20647;-65
2023/03/01 07:23:59;;;;;;;20.80;18.80;;;4.70;97.20;;;;;;1714913;28;20202;-65
2023/03/01 07:24:51;;;;;;;22.17;19.87;;;4.80;97.20;;;;;;1714792;28;20198;-65
2023/03/01 07:25:42;;;;;;;22.80;19.88;;;4.80;97.20;;;;;;1719075;28;20260;-65
2023/03/01 07:26:34;;;;;;;21.90;19.57;;;4.80;97.20;;;;;;1721431;28;20219;-65
2023/03/01 07:27:25;;;;;;;22.35;19.95;;;4.80;97.20;;;;;;1721128;28;20236;-65
2023/03/01 07:28:16;;;;;;;23.80;19.13;;;4.90;97.20;;;;;;1721377;28;20194;-65
2023/03/01 07:29:10;;;;;;;21.60;19.42;;;4.90;97.20;;;;;;1721176;28;20567;-65
2023/03/01 07:30:02;;;;;;;24.63;20.10;;;5.00;97.20;;;;;;1721290;28;20207;-65
2023/03/01 07:30:53;;;;;;;21.63;19.02;;;5.00;97.20;;;;;;1720327;28;20295;-65
2023/03/01 07:31:45;;;;;;;22.52;20.05;;;5.00;97.20;;;;;;1720912;28;20205;-65
2023/03/01 07:32:36;;;;;;;21.77;19.52;;;5.10;97.20;;;;;;1720701;28;20209;-65
2023/03/01 07:33:29;;;;;;;21.73;19.40;;;5.10;97.20;;;;;;1721177;28;20203;-65
2023/03/01 07:34:20;;;;;;;23.33;18.30;;;5.20;97.20;;;;;;1720330;28;20871;-65
2023/03/01 07:35:11;;;;;;;21.40;19.33;;;5.20;97.20;;;;;;1720714;28;20567;-65
2023/03/01 07:36:03;;;;;;;20.67;18.67;;;5.20;97.20;;;;;;1721414;28;20229;-65
2023/03/01 07:36:55;;;;;;;23.20;19.55;;;5.30;97.20;;;;;;1721376;28;20209;-65
2023/03/01 07:37:46;;;;;;;22.42;20.00;;;5.30;97.20;;;;;;1719455;28;20599;-65
2023/03/01 07:38:37;;;;;;;21.97;19.77;;;5.40;97.20;;;;;;1721019;28;20190;-65
2023/03/01 07:39:28;;;;;;;21.35;19.15;;;5.40;97.20;;;;;;1721345;28;20227;-65
2023/03/01 07:40:20;;;;;;;21.70;19.60;;;5.50;97.20;;;;;;1719085;28;20189;-64
2023/03/01 07:41:11;;;;;;;22.35;20.10;;;5.50;97.20;;;;;;1714643;28;20478;-65
2023/03/01 07:42:03;;;;;;;22.60;19.53;;;5.60;97.20;;;;;;1714570;28;20204;-65
2023/03/01 07:42:56;;;;;;;21.63;19.45;;;5.60;97.20;;;;;;1714729;28;20582;-65
2023/03/01 07:43:47;;;;;;;23.08;19.70;;;5.60;97.20;;;;;;1714662;28;20217;-65
2023/03/01 07:44:39;;;;;;;22.40;20.10;;;5.70;97.20;;;;;;1714608;28;20201;-65
2023/03/01 07:45:30;;;;;;;22.48;19.98;;;5.80;97.20;;;;;;1717694;28;20453;-65
2023/03/01 07:46:21;;;;;;;22.57;20.03;;;5.80;97.20;;;;;;1721415;28;20193;-65
2023/03/01 07:47:12;;;;;;;22.80;19.95;;;5.80;97.20;;;;;;1721130;28;20452;-65
2023/03/01 07:48:04;;;;;;;22.43;20.00;;;5.90;97.20;;;;;;1721386;28;20205;-66
2023/03/01 07:48:57;;;;;;;22.05;19.80;;;5.90;97.20;;;;;;1721150;28;20201;-65
2023/03/01 07:49:49;;;;;;;22.42;20.13;;;6.00;97.20;;;;;;1721414;28;20224;-66
2023/03/01 07:50:40;;;;;;;30.75;19.90;;;6.00;97.20;;;;;;1721224;28;20225;-65
2023/03/01 07:51:31;;;;;;;24.83;19.97;;;6.00;97.20;;;;;;1721304;28;20251;-65
2023/03/01 07:52:22;;;;;;;21.80;19.60;;;6.10;97.20;;;;;;1721350;28;20702;-65
2023/03/01 07:53:14;;;;;;;22.23;19.70;;;6.10;97.20;;;;;;1721177;28;20648;-65
2023/03/01 07:54:05;;;;;;;22.67;20.20;;;6.10;97.20;;;;;;1721319;28;20201;-65
2023/03/01 07:54:57;;;;;;;22.45;20.10;;;6.20;97.20;;;;;;1716684;28;20200;-65
2023/03/01 07:55:47;;;;;;;23.75;21.00;;;6.20;97.20;;;;;;1714129;28;20589;-65
2023/03/01 07:56:40;;;;;;;21.70;19.23;;;6.30;97.20;;;;;;1714591;28;20259;-65
2023/03/01 07:57:31;;;;;;;22.15;19.95;;;6.40;97.20;;;;;;1714290;28;20235;-65
2023/03/01 07:58:23;;;;;;;23.60;19.87;;;6.40;97.20;;;;;;1714514;28;20201;-65
2023/03/01 07:59:13;;;;;;;26.05;20.27;;;6.50;97.20;;;;;;1714504;28;20448;-65
2023/03/01 08:00:06;;;;;;;21.67;19.47;;;6.50;97.20;;;;;;1714608;28;20210;-65
2023/03/01 08:01:01;;;;;;;22.55;19.25;;;6.60;97.20;;;;;;1714486;28;20226;-65
2023/03/01 08:01:52;;;;;;;22.38;19.65;;;6.60;97.20;;;;;;1714547;28;20268;-65
2023/03/01 08:02:43;;;;;;;23.90;21.30;;;6.60;97.20;;;;;;1714496;28;20236;-65
2023/03/01 08:03:36;;;;;;;22.60;20.33;;;6.70;97.20;;;;;;1714445;28;20204;-65
2023/03/01 08:04:28;;;;;;;21.30;19.00;;;6.80;97.20;;;;;;1714646;28;20234;-65
2023/03/01 08:05:21;;;;;;;20.92;18.73;;;6.80;97.20;;;;;;1714596;28;20624;-65
2023/03/01 08:06:14;;;;;;;23.10;20.63;;;6.80;97.20;;;;;;1714652;28;20636;-65
2023/03/01 08:07:06;;;;;;;26.00;19.83;;;6.90;97.20;;;;;;1714565;28;20208;-65
2023/03/01 08:07:57;;;;;;;23.30;20.73;;;6.90;97.20;;;;;;1714317;28;20206;-65
2023/03/01 08:08:49;;;;;;;23.23;19.70;;;6.90;97.20;;;;;;1714473;28;20201;-65
2023/03/01 08:09:39;;;;;;;22.67;20.17;;;7.00;97.20;;;;;;1721256;28;20201;-65
2023/03/01 08:10:31;;;;;;;22.73;20.33;;;7.00;97.20;;;;;;1721108;28;20225;-65
2023/03/01 08:11:22;;;;;;;22.10;18.98;;;7.10;97.20;;;;;;1721195;28;20510;-65
2023/03/01 08:12:16;;;;;;;21.40;19.20;;;7.10;97.20;;;;;;1721149;28;20244;-65
2023/03/01 08:13:06;;;;;;;23.48;20.98;;;7.10;97.20;;;;;;1721073;28;20209;-65
2023/03/01 08:13:58;;;;;;;20.97;18.80;;;7.20;97.20;;;;;;1721177;28;20201;-65
2023/03/01 08:14:49;;;;;;;23.13;20.10;;;7.20;97.20;;;;;;1721112;28;20228;-65
2023/03/01 08:15:41;;;;;;;22.10;19.80;;;7.20;97.20;;;;;;1721232;28;20211;-65
2023/03/01 08:16:33;;;;;;;24.92;20.25;;;7.30;97.20;;;;;;1721063;28;20568;-65
2023/03/01 08:17:24;;;;;;;21.65;19.35;;;7.40;97.20;;;;;;1720864;28;20295;-65
2023/03/01 08:18:16;;;;;;;23.35;20.90;;;7.40;97.20;;;;;;1721035;28;20209;-65
2023/03/01 08:19:09;;;;;;;22.88;20.42;;;7.50;97.20;;;;;;1721111;28;20232;-65
2023/03/01 08:20:03;;;;;;;23.23;20.00;;;7.60;97.20;;;;;;1721093;28;20209;-65
2023/03/01 08:20:54;;;;;;;22.80;20.35;;;7.60;97.20;;;;;;1721043;28;20312;-65
2023/03/01 08:21:45;;;;;;;21.20;19.05;;;7.70;97.20;;;;;;1721056;28;20216;-65
2023/03/01 08:22:37;;;;;;;21.53;19.20;;;7.70;97.20;;;;;;1721078;28;20219;-65
2023/03/01 08:23:27;;;;;;;24.15;21.00;;;7.80;97.20;;;;;;1717469;28;20567;-65
2023/03/01 08:24:19;;;;;;;22.40;20.10;;;7.80;97.20;;;;;;1714475;28;20216;-65
2023/03/01 08:25:10;;;;;;;27.13;21.70;;;7.80;97.20;;;;;;1714355;28;20569;-65
2023/03/01 08:26:07;;;;;;;22.00;19.70;;;7.90;97.20;;;;;;1714454;28;20225;-65
2023/03/01 08:26:58;;;;;;;21.95;19.50;;;7.90;97.20;;;;;;1714320;28;20201;-65
2023/03/01 08:27:50;;;;;;;22.87;20.50;;;8.00;97.20;;;;;;1714143;28;20206;-65
2023/03/01 08:28:41;;;;;;;22.80;19.75;;;8.00;97.20;;;;;;1714204;28;20206;-65
2023/03/01 08:29:34;;;;;;;23.52;21.02;;;8.10;97.20;;;;;;1714332;28;20206;-65
2023/03/01 08:30:25;;;;;;;23.15;18.98;;;8.10;97.20;;;;;;1714173;28;20198;-65
2023/03/01 08:31:20;;;;;;;20.95;18.83;;;8.20;97.20;;;;;;1714382;28;20216;-65
2023/03/01 08:32:10;;;;;;;22.83;20.52;;;8.20;97.20;;;;;;1714183;28;20665;-65
2023/03/01 08:33:02;;;;;;;23.00;19.90;;;8.30;97.20;;;;;;1714266;28;20565;-65
2023/03/01 08:33:55;;;;;;;25.02;20.58;;;8.30;97.20;;;;;;1714300;28;20208;-65
2023/03/01 08:34:47;;;;;;;23.27;20.75;;;8.40;97.20;;;;;;1714367;28;20209;-65
2023/03/01 08:35:39;;;;;;;23.55;20.80;;;8.50;97.20;;;;;;1714248;28;20209;-65
2023/03/01 08:36:33;;;;;;;22.23;20.05;;;8.50;97.20;;;;;;1714276;28;20217;-65
2023/03/01 08:37:24;;;;;;;23.25;20.90;;;8.50;97.20;;;;;;1714313;28;20209;-65
2023/03/01 08:38:16;;;;;;;23.08;20.58;;;8.60;97.20;;;;;;1720941;28;20209;-65
2023/03/01 08:39:08;;;;;;;24.35;20.73;;;8.60;97.20;;;;;;1720918;28;20209;-65
2023/03/01 08:40:00;;;;;;;24.05;21.48;;;8.70;97.20;;;;;;1720950;28;20570;-65
2023/03/01 08:40:51;;;;;;;22.35;20.15;;;8.70;97.20;;;;;;1720878;28;20282;-65
2023/03/01 08:41:43;;;;;;;22.37;20.17;;;8.80;97.20;;;;;;1721021;28;20201;-65
2023/03/01 08:42:34;;;;;;;21.15;19.15;;;8.80;97.20;;;;;;1720917;28;20250;-65
2023/03/01 08:43:25;;;;;;;22.27;19.97;;;8.90;97.20;;;;;;1720952;28;20209;-65
2023/03/01 08:44:17;;;;;;;22.92;20.52;;;8.90;97.20;;;;;;1720909;28;20201;-65
2023/03/01 08:45:09;;;;;;;21.48;19.27;;;9.00;97.20;;;;;;1720909;28;20201;-65
2023/03/01 08:46:01;;;;;;;22.73;20.33;;;9.00;97.20;;;;;;1721019;28;20197;-65
2023/03/01 08:46:54;;;;;;;21.55;19.40;;;9.00;97.20;;;;;;1720928;28;20205;-65
2023/03/01 08:47:46;;;;;;;23.40;21.00;;;9.10;97.20;;;;;;1720696;28;20568;-65
2023/03/01 08:48:36;;;;;;;20.25;18.15;;;9.20;97.20;;;;;;1720869;28;20255;-65
2023/03/01 08:49:28;;;;;;;22.47;20.10;;;9.20;97.20;;;;;;1720881;28;20249;-65
2023/03/01 08:50:20;;;;;;;23.00;20.60;;;9.30;97.20;;;;;;1720878;28;20228;-65
2023/03/01 08:51:14;;;;;;;22.75;19.60;;;9.40;97.20;;;;;;1720909;28;20204;-65
2023/03/01 08:52:06;;;;;;;20.52;18.35;;;9.50;97.20;;;;;;1717036;28;20614;-65
2023/03/01 08:52:57;;;;;;;24.08;21.40;;;9.50;97.20;;;;;;1714150;28;20252;-65
2023/03/01 08:53:49;;;;;;;25.17;20.13;;;9.60;97.20;;;;;;1714204;28;20201;-65
2023/03/01 08:54:40;;;;;;;21.88;19.73;;;9.60;97.20;;;;;;1714137;28;20237;-65
2023/03/01 08:55:32;;;;;;;22.67;20.33;;;9.70;97.20;;;;;;1714156;28;20208;-65
2023/03/01 08:56:22;;;;;;;22.35;20.05;;;9.80;97.20;;;;;;1714346;28;20630;-65
2023/03/01 08:57:14;;;;;;;22.37;20.10;;;9.90;97.20;;;;;;1713839;28;20202;-65
2023/03/01 08:58:05;;;;;;;23.45;21.05;;;10.00;97.20;;;;;;1714164;28;20229;-65
2023/03/01 08:58:57;;;;;;;22.80;20.40;;;10.00;97.20;;;;;;1714121;28;20208;-65
2023/03/01 08:59:47;;;;;;;22.20;20.00;;;10.10;97.20;;;;;;1714229;28;20201;-65
2023/03/01 09:00:39;;;;;;;21.50;19.30;;;10.20;97.20;;;;;;1714089;28;20222;-65
2023/03/01 09:01:30;;;;;;;21.98;19.80;;;10.30;97.20;;;;;;1714219;28;20205;-65
2023/03/01 09:02:22;;;;;;;22.23;19.80;;;10.40;97.20;;;;;;1714143;28;20281;-65
2023/03/01 09:03:13;;;;;;;23.60;21.10;;;10.40;97.20;;;;;;1714006;28;20202;-65
2023/03/01 09:04:04;;;;;;;23.07;20.70;;;10.50;97.20;;;;;;1714246;28;20206;-65
2023/03/01 09:04:55;;;;;;;21.98;19.88;;;10.60;97.20;;;;;;1714112;28;20202;-65
2023/03/01 09:05:47;;;;;;;21.73;19.43;;;10.60;97.20;;;;;;1714185;28;20209;-65
2023/03/01 09:06:39;;;;;;;21.50;19.30;;;10.70;97.20;;;;;;1719107;28;20216;-65
2023/03/01 09:07:30;;;;;;;21.58;19.33;;;10.70;97.20;;;;;;1720569;28;20243;-66
2023/03/01 09:08:21;;;;;;;23.55;21.17;;;10.80;97.20;;;;;;1720810;28;20586;-65
2023/03/01 09:09:16;;;;;;;22.50;20.20;;;10.80;97.20;;;;;;1720714;28;20193;-66
2023/03/01 09:10:07;;;;;;;23.35;20.23;;;10.90;97.20;;;;;;1720874;28;20217;-65
2023/03/01 09:11:01;;;;;;;23.95;21.55;;;11.00;97.20;;;;;;1720789;28;20224;-65
2023/03/01 09:11:52;;;;;;;22.40;20.10;;;11.00;97.20;;;;;;1720817;28;20205;-65
2023/03/01 09:12:44;;;;;;;22.67;20.47;;;11.00;97.20;;;;;;1720848;28;20229;-65
2023/03/01 09:13:35;;;;;;;22.73;20.35;;;11.10;97.20;;;;;;1720784;28;20204;-65
2023/03/01 09:14:27;;;;;;;22.13;19.80;;;11.20;97.20;;;;;;1720822;28;20197;-65
2023/03/01 09:15:18;;;;;;;22.15;20.05;;;11.30;97.20;;;;;;1720840;28;20579;-65
2023/03/01 09:16:11;;;;;;;21.60;19.43;;;11.40;97.20;;;;;;1720798;28;20280;-65
2023/03/01 09:17:02;;;;;;;21.42;19.23;;;11.50;97.20;;;;;;1720819;28;20626;-65
2023/03/01 09:17:54;;;;;;;23.30;20.90;;;11.60;97.20;;;;;;1720456;28;20201;-65
2023/03/01 09:18:48;;;;;;;22.67;20.23;;;11.70;97.20;;;;;;1720782;28;20205;-65
2023/03/01 09:19:40;;;;;;;22.42;20.13;;;11.80;97.20;;;;;;1720786;28;20201;-65
2023/03/01 09:20:31;;;;;;;21.02;19.02;;;11.80;97.20;;;;;;1718166;28;20232;-65
2023/03/01 09:21:24;;;;;;;21.75;19.60;;;11.90;97.20;;;;;;1714160;28;20234;-66
2023/03/01 09:22:17;;;;;;;21.48;19.25;;;11.90;97.20;;;;;;1714029;28;20229;-65
2023/03/01 09:23:08;;;;;;;23.48;20.90;;;12.00;97.20;;;;;;1714017;28;20699;-66
2023/03/01 09:23:59;;;;;;;21.40;19.30;;;12.10;97.20;;;;;;1714028;28;20563;-66
2023/03/01 09:24:50;;;;;;;22.23;19.98;;;12.20;97.20;;;;;;1714019;28;20264;-65
2023/03/01 09:25:42;;;;;;;23.37;20.77;;;12.30;97.20;;;;;;1714119;28;20210;-65
2023/03/01 09:26:32;;;;;;;21.77;19.67;;;12.40;97.20;;;;;;1714001;28;20206;-65
2023/03/01 09:27:24;;;;;;;23.20;20.80;;;12.60;97.20;;;;;;1713775;28;20202;-66
2023/03/01 09:28:15;;;;;;;24.50;19.88;;;12.70;97.20;;;;;;1713950;28;20567;-65
2023/03/01 09:29:09;;;;;;;22.03;19.73;;;12.80;97.20;;;;;;1714077;28;20644;-65
2023/03/01 09:30:00;;;;;;;22.45;19.90;;;13.00;97.20;;;;;;1714123;28;20202;-65
2023/03/01 09:30:51;;;;;;;24.07;20.87;;;13.20;97.20;;;;;;1713929;28;20765;-65
2023/03/01 09:31:42;;;;;;;21.35;19.08;;;13.50;97.20;;;;;;1714114;28;20209;-65
2023/03/01 09:32:34;;;;;;;21.55;19.45;;;14.00;97.20;;;;;;1713897;28;20201;-66
2023/03/01 09:33:25;;;;;;;21.98;19.70;;;14.80;96.60;;;;;;1713979;28;20205;-66
2023/03/01 09:34:22;;;;;;;21.63;19.20;;;16.00;95.10;;;;;;1714065;28;20208;-65
2023/03/01 09:35:13;;;;;;;22.15;19.85;;;17.20;93.20;;;;;;1719208;28;20693;-65
2023/03/01 09:36:07;;;;;;;21.08;19.08;;;18.50;90.90;;;;;;1720682;28;20201;-66
2023/03/01 09:37:02;;;;;;;22.42;20.08;;;19.70;88.80;;;;;;1720648;28;20582;-65
2023/03/01 09:37:55;;;;;;;25.52;19.60;;;20.90;86.30;;;;;;1720324;28;20215;-66
2023/03/01 09:38:46;;;;;;;22.42;20.15;;;22.10;83.90;;;;;;1720618;28;20248;-66
2023/03/01 09:39:38;;;;;;;21.30;19.17;;;23.00;81.60;;;;;;1720683;28;20746;-65
2023/03/01 09:40:29;;;;;;;21.83;19.60;;;23.80;80.30;;;;;;1720547;28;20205;-66
2023/03/01 09:41:45;;;;;;;22.20;20.10;;;24.50;78.20;;;;;;1720707;28;20207;-66
2023/03/01 09:42:54;;;;;;;21.10;18.88;;;25.30;76.40;;;;;;1720660;28;20681;-66
2023/03/01 09:43:48;;;;;;;22.17;19.25;;;26.30;74.20;;;;;;1720635;28;20644;-66
2023/03/01 09:44:46;;;;;;;21.70;19.50;;;27.00;72.60;;;;;;1720717;28;20197;-65
2023/03/01 09:45:43;;;;;;;21.27;19.20;;;27.60;71.50;;;;;;1720685;28;20213;-66
2023/03/01 09:46:44;;;;;;;23.27;21.08;;;28.10;70.30;;;;;;1720686;28;20221;-66
2023/03/01 09:47:36;;;;;;;20.75;18.73;;;28.60;69.20;;;;;;1720490;28;20205;-66
2023/03/01 09:48:39;;;;;;;22.13;20.02;;;29.00;68.10;;;;;;1720560;28;20233;-66
2023/03/01 09:49:32;;;;;;;21.75;19.65;;;29.40;68.00;;;;;;1715063;28;20587;-66
2023/03/01 09:50:27;;;;;;;22.23;19.90;;;29.80;67.30;;;;;;1713945;28;20205;-66
2023/03/01 09:51:25;;;;;;;21.30;19.45;;;30.10;66.50;;;;;;1714005;28;20206;-66
2023/03/01 09:52:29;;;;;;;21.73;19.75;;;30.50;66.10;;;;;;1713956;28;20225;-66
2023/03/01 09:53:27;;;;;;;22.05;19.98;;;30.90;64.80;;;;;;1713891;28;20209;-66
2023/03/01 09:54:18;;;;;;;22.20;20.00;;;31.20;64.50;;;;;;1713975;28;20237;-66
2023/03/01 09:55:13;;;;;;;20.73;18.83;;;31.60;64.20;;;;;;1713913;28;20213;-66
2023/03/01 09:56:13;;;;;;;20.88;19.08;;;32.00;64.00;;;;;;1713973;28;20210;-66
2023/03/01 09:57:17;;;;;;;21.05;19.15;;;32.40;63.50;;;;;;1714017;28;20233;-66
2023/03/01 09:58:30;;;;;;;21.38;19.48;;;32.80;62.60;;;;;;1713954;28;20202;-66
2023/03/01 09:59:26;;;;;;;20.45;18.42;;;33.20;62.10;;;;;;1713896;28;20209;-66
2023/03/01 10:00:30;;;;;;;20.65;18.88;;;33.50;61.60;;;;;;1713956;28;20198;-66
2023/03/01 10:01:32;;;;;;;20.38;18.52;;;33.80;61.20;;;;;;1713915;28;20202;-66
2023/03/01 10:02:31;;;;;;;21.42;19.38;;;34.00;61.30;;;;;;1713948;28;20200;-66
2023/03/01 10:03:28;;;;;;;22.50;20.50;;;34.30;60.80;;;;;;1714923;28;20229;-66
2023/03/01 10:04:41;;;;;;;21.02;19.05;;;34.30;60.20;;;;;;1713873;28;20225;-66
2023/03/01 10:05:38;;;;;;;21.42;19.58;;;34.40;59.70;;;;;;1716328;28;20625;-66
2023/03/01 10:06:29;;;;;;;20.48;18.50;;;34.40;59.80;;;;;;1720665;28;20201;-66
2023/03/01 10:07:32;;;;;;;20.23;18.25;;;34.20;59.60;;;;;;1720317;28;20605;-66
2023/03/01 10:08:36;;;;;;;20.67;18.88;;;34.00;59.90;;;;;;1720543;28;20201;-66
2023/03/01 10:09:31;;;;;;;21.00;19.10;;;34.00;59.80;;;;;;1720572;28;20798;-66
2023/03/01 10:10:32;;;;;;;21.27;19.38;;;34.10;59.80;;;;;;1720559;28;20204;-66
2023/03/01 10:11:27;;;;;;;21.00;19.20;;;34.40;59.70;;;;;;1720677;28;20205;-66
2023/03/01 10:12:23;;;;;;;20.90;19.10;;;34.70;59.60;;;;;;1720587;28;20212;-67
2023/03/01 10:13:22;;;;;;;20.83;19.00;;;35.10;59.20;;;;;;1720551;28;20654;-66
2023/03/01 10:14:28;;;;;;;22.48;19.83;;;35.40;58.80;;;;;;1720519;28;20208;-66
2023/03/01 10:15:26;;;;;;;20.70;19.00;;;35.80;58.20;;;;;;1720616;28;20237;-66
2023/03/01 10:16:22;;;;;;;20.45;18.75;;;36.30;57.70;;;;;;1720572;28;20212;-66
2023/03/01 10:17:19;;;;;;;21.83;19.95;;;36.70;57.60;;;;;;1720454;28;20205;-67
2023/03/01 10:18:15;;;;;;;21.40;19.50;;;37.10;57.00;;;;;;1714373;28;20204;-67
2023/03/01 10:19:10;;;;;;;21.05;19.25;;;37.40;56.50;;;;;;1715155;28;20237;-66
2023/03/01 10:20:19;;;;;;;19.88;18.27;;;37.80;56.20;;;;;;1715201;28;20626;-67
2023/03/01 10:21:16;;;;;;;20.65;19.05;;;38.00;55.80;;;;;;1715256;28;20494;-66
2023/03/01 10:22:14;;;;;;;20.85;19.25;;;38.30;55.60;;;;;;1715245;28;20205;-66
2023/03/01 10:23:09;;;;;;;21.17;19.48;;;38.50;55.20;;;;;;1715197;28;20208;-67
2023/03/01 10:24:11;;;;;;;21.55;19.75;;;38.70;55.20;;;;;;1715224;28;20685;-67
2023/03/01 10:25:03;;;;;;;22.25;20.27;;;38.90;54.40;;;;;;1715188;28;20233;-66
2023/03/01 10:26:10;;;;;;;20.48;18.77;;;39.20;54.50;;;;;;1715078;28;20208;-66
2023/03/01 10:27:05;;;;;;;20.58;18.67;;;39.40;54.10;;;;;;1715134;28;20648;-66
2023/03/01 10:28:05;;;;;;;21.60;19.53;;;39.60;53.90;;;;;;1714978;28;20202;-67
2023/03/01 10:29:02;;;;;;;20.85;19.05;;;39.80;53.90;;;;;;1715006;28;20453;-66
2023/03/01 10:30:03;;;;;;;21.03;19.33;;;40.00;53.60;;;;;;1715229;28;20229;-66
2023/03/01 10:30:54;;;;;;;19.80;18.20;;;40.20;53.40;;;;;;1714978;28;20500;-67